createdAt,value
2024-01-15T00:00:13.590Z,98333.00
2024-01-15T00:02:40.456Z,98326.00
2024-01-15T00:05:07.582Z,98322.00
2024-01-15T00:07:34.356Z,98319.00
2024-01-15T00:10:01.084Z,98314.00
2024-01-15T00:12:27.878Z,98303.00
2024-01-15T00:14:55.334Z,98312.00
2024-01-15T00:17:22.138Z,98328.00
2024-01-15T00:19:48.931Z,98323.00
2024-01-15T00:22:15.688Z,98317.00
2024-01-15T00:24:42.420Z,98322.00
2024-01-15T00:27:09.224Z,98319.00
2024-01-15T00:29:36.051Z,98318.00
2024-01-15T00:32:02.858Z,98322.00
2024-01-15T00:34:29.705Z,98321.00
2024-01-15T00:36:56.575Z,98320.00
2024-01-15T00:39:23.344Z,98317.00
2024-01-15T00:41:50.096Z,98308.00
2024-01-15T00:44:17.214Z,98308.00
2024-01-15T00:46:49.048Z,98306.00
2024-01-15T00:49:17.152Z,98317.00
2024-01-15T00:51:44.328Z,98311.00
2024-01-15T00:54:11.360Z,98305.00
2024-01-15T00:56:38.386Z,98313.00
2024-01-15T00:59:05.268Z,98303.00
2024-01-15T01:01:32.721Z,98305.00
2024-01-15T01:03:59.616Z,98298.00
2024-01-15T01:06:26.473Z,98303.00
2024-01-15T01:08:53.309Z,98289.00
2024-01-15T01:11:20.151Z,98290.00
2024-01-15T01:13:46.928Z,98305.00
2024-01-15T01:16:13.839Z,98292.00
2024-01-15T01:18:40.808Z,98300.00
2024-01-15T01:21:07.934Z,98294.00
2024-01-15T01:23:34.704Z,98296.00
2024-01-15T01:26:01.441Z,98298.00
2024-01-15T01:28:29.305Z,98312.00
2024-01-15T01:30:56.250Z,98305.00
2024-01-15T01:33:23.232Z,98309.00
2024-01-15T01:35:50.239Z,98305.00
2024-01-15T01:38:17.069Z,98320.00
2024-01-15T01:40:44.073Z,98314.00
2024-01-15T01:43:11.469Z,98320.00
2024-01-15T01:45:38.920Z,98322.00
2024-01-15T01:48:06.247Z,98322.00
2024-01-15T01:50:33.359Z,98305.00
2024-01-15T01:53:02.226Z,98313.00
2024-01-15T01:55:31.908Z,98316.00
2024-01-15T01:57:58.906Z,98308.00
2024-01-15T02:00:25.951Z,98302.00
2024-01-15T02:02:52.860Z,98304.00
2024-01-15T02:05:21.554Z,98313.00
2024-01-15T02:07:48.790Z,98309.00
2024-01-15T02:10:15.878Z,98309.00
2024-01-15T02:12:44.623Z,98309.00
2024-01-15T02:15:11.780Z,98301.00
2024-01-15T02:18:03.695Z,98302.00
2024-01-15T02:20:31.482Z,98310.00
2024-01-15T02:23:15.523Z,98302.00
2024-01-15T02:25:47.629Z,98293.00
2024-01-15T02:28:17.764Z,98298.00
2024-01-15T02:30:45.655Z,98287.00
2024-01-15T02:33:13.729Z,98291.00
2024-01-15T02:35:40.848Z,98300.00
2024-01-15T02:38:08.526Z,98295.00
2024-01-15T02:40:36.274Z,98299.00
2024-01-15T02:43:03.268Z,98303.00
2024-01-15T02:45:30.335Z,98295.00
2024-01-15T02:47:57.310Z,98297.00
2024-01-15T02:50:24.227Z,98298.00
2024-01-15T02:52:51.093Z,98304.00
2024-01-15T02:55:17.887Z,98301.00
2024-01-15T02:57:47.384Z,98296.00
2024-01-15T03:00:14.810Z,98297.00
2024-01-15T03:02:48.314Z,98305.00
2024-01-15T03:05:19.062Z,98303.00
2024-01-15T03:07:45.890Z,98308.00
2024-01-15T03:10:12.606Z,98301.00
2024-01-15T03:12:39.414Z,98296.00
2024-01-15T03:15:06.830Z,98299.00
2024-01-15T03:17:33.689Z,98300.00
2024-01-15T03:20:01.839Z,98294.00
2024-01-15T03:22:28.729Z,98301.00
2024-01-15T03:24:55.906Z,98302.00
2024-01-15T03:27:22.776Z,98295.00
2024-01-15T03:29:49.626Z,98299.00
2024-01-15T03:32:17.296Z,98292.00
2024-01-15T03:34:44.261Z,98287.00
2024-01-15T03:37:11.107Z,98283.00
2024-01-15T03:39:38.112Z,98284.00
2024-01-15T03:42:05.374Z,98266.00
2024-01-15T03:44:32.135Z,98263.00
2024-01-15T03:46:59.157Z,98273.00
2024-01-15T03:49:26.116Z,98256.00
2024-01-15T03:51:53.171Z,98260.00
2024-01-15T03:54:20.923Z,98248.00
2024-01-15T03:56:47.960Z,98250.00
2024-01-15T03:59:14.916Z,98243.00
2024-01-15T04:01:41.791Z,98248.00
2024-01-15T04:04:08.796Z,98244.00
2024-01-15T04:06:35.921Z,98257.00
2024-01-15T04:09:02.736Z,98237.00
2024-01-15T04:11:29.461Z,98234.00
2024-01-15T04:13:56.148Z,98243.00
2024-01-15T04:16:22.851Z,98232.00
2024-01-15T04:18:49.788Z,98235.00
2024-01-15T04:21:19.458Z,98239.00
2024-01-15T04:23:46.196Z,98227.00
2024-01-15T04:26:12.959Z,98219.00
2024-01-15T04:28:39.739Z,98215.00
2024-01-15T04:31:06.780Z,98218.00
2024-01-15T04:33:33.690Z,98224.00
2024-01-15T04:36:08.350Z,98219.00
2024-01-15T04:38:37.344Z,98218.00
2024-01-15T04:41:04.302Z,98221.00
2024-01-15T04:43:31.071Z,98206.00
2024-01-15T04:45:57.915Z,98201.00
2024-01-15T04:48:24.787Z,98191.00
2024-01-15T04:50:51.791Z,98190.00
2024-01-15T04:53:18.630Z,98180.00
2024-01-15T04:55:45.346Z,98181.00
2024-01-15T04:58:12.088Z,98189.00
2024-01-15T05:00:39.044Z,98189.00
2024-01-15T05:03:06.201Z,98192.00
2024-01-15T05:05:33.043Z,98193.00
2024-01-15T05:07:59.794Z,98193.00
2024-01-15T05:10:26.577Z,98180.00
2024-01-15T05:12:53.361Z,98181.00
2024-01-15T05:15:20.364Z,98181.00
2024-01-15T05:17:47.205Z,98178.00
2024-01-15T05:20:14.216Z,98172.00
2024-01-15T05:22:41.039Z,98178.00
2024-01-15T05:25:07.986Z,98172.00
2024-01-15T05:27:34.866Z,98176.00
2024-01-15T05:30:01.789Z,98175.00
2024-01-15T05:32:28.532Z,98185.00
2024-01-15T05:34:55.408Z,98178.00
2024-01-15T05:37:22.197Z,98173.00
2024-01-15T05:39:48.970Z,98171.00
2024-01-15T05:42:15.811Z,98169.00
2024-01-15T05:44:42.768Z,98163.00
2024-01-15T05:47:09.541Z,98162.00
2024-01-15T05:49:37.328Z,98158.00
2024-01-15T05:52:04.585Z,98152.00
2024-01-15T05:54:31.498Z,98152.00
2024-01-15T05:56:58.485Z,98148.00
2024-01-15T05:59:26.574Z,98145.00
2024-01-15T06:01:53.458Z,98140.00
2024-01-15T06:04:20.700Z,98129.00
2024-01-15T06:06:47.605Z,98135.00
2024-01-15T06:09:14.359Z,98126.00
2024-01-15T06:11:41.139Z,98120.00
2024-01-15T06:14:07.902Z,98130.00
2024-01-15T06:16:34.622Z,98129.00
2024-01-15T06:19:01.487Z,98116.00
2024-01-15T06:21:28.442Z,98118.00
2024-01-15T06:23:59.618Z,98120.00
2024-01-15T06:26:26.648Z,98098.00
2024-01-15T06:28:53.380Z,98108.00
2024-01-15T06:31:20.293Z,98102.00
2024-01-15T06:33:49.518Z,98109.00
2024-01-15T06:36:19.556Z,98106.00
2024-01-15T06:38:46.412Z,98094.00
2024-01-15T06:41:13.332Z,98085.00
2024-01-15T06:43:40.301Z,98076.00
2024-01-15T06:46:08.136Z,98073.00
2024-01-15T06:48:35.917Z,98072.00
2024-01-15T06:51:02.823Z,98068.00
2024-01-15T06:53:29.632Z,98057.00
2024-01-15T06:55:56.409Z,98059.00
2024-01-15T06:58:23.163Z,98063.00
2024-01-15T07:00:49.963Z,98069.00
2024-01-15T07:03:16.872Z,98062.00
2024-01-15T07:05:43.781Z,98062.00
2024-01-15T07:08:10.598Z,98043.00
2024-01-15T07:10:37.913Z,98056.00
2024-01-15T07:13:06.556Z,98063.00
2024-01-15T07:15:33.488Z,98061.00
2024-01-15T07:18:00.305Z,98055.00
2024-01-15T07:20:27.143Z,98058.00
2024-01-15T07:22:53.922Z,98053.00
2024-01-15T07:25:20.663Z,98064.00
2024-01-15T07:27:48.042Z,98090.00
2024-01-15T07:30:15.443Z,98098.00
2024-01-15T07:32:42.464Z,98104.00
2024-01-15T07:35:09.444Z,98105.00
2024-01-15T07:37:36.286Z,98108.00
2024-01-15T07:40:05.549Z,98105.00
2024-01-15T07:42:32.480Z,98105.00
2024-01-15T07:44:59.217Z,98106.00
2024-01-15T07:47:26.136Z,98097.00
2024-01-15T07:49:53.651Z,98105.00
2024-01-15T07:52:20.931Z,98096.00
2024-01-15T07:54:47.766Z,98102.00
2024-01-15T07:57:14.649Z,98094.00
2024-01-15T07:59:43.102Z,98098.00
2024-01-15T08:02:10.096Z,98089.00
2024-01-15T08:04:40.939Z,98092.00
2024-01-15T08:07:10.971Z,98093.00
2024-01-15T08:09:37.839Z,98093.00
2024-01-15T08:12:07.110Z,98095.00
2024-01-15T08:14:33.883Z,98088.00
2024-01-15T08:17:00.694Z,98083.00
2024-01-15T08:19:27.560Z,98090.00
2024-01-15T08:21:54.542Z,98083.00
2024-01-15T08:24:21.335Z,98097.00
2024-01-15T08:26:48.207Z,98097.00
2024-01-15T08:29:14.984Z,98096.00
2024-01-15T08:31:41.875Z,98099.00
2024-01-15T08:34:09.301Z,98099.00
2024-01-15T08:36:37.297Z,98096.00
2024-01-15T08:39:07.549Z,98100.00
2024-01-15T08:41:35.743Z,98094.00
2024-01-15T08:44:03.838Z,98105.00
2024-01-15T08:46:30.773Z,98098.00
2024-01-15T08:48:57.705Z,98089.00
2024-01-15T08:51:24.622Z,98083.00
2024-01-15T08:53:51.385Z,98089.00
2024-01-15T08:56:18.178Z,98090.00
2024-01-15T08:58:49.339Z,98092.00
2024-01-15T09:01:16.223Z,98091.00
2024-01-15T09:03:44.009Z,98090.00
2024-01-15T09:06:11.906Z,98101.00
2024-01-15T09:08:38.818Z,98085.00
2024-01-15T09:11:05.921Z,98078.00
2024-01-15T09:13:32.770Z,98069.00
2024-01-15T09:16:00.681Z,98086.00
2024-01-15T09:18:27.824Z,98096.00
2024-01-15T09:20:54.702Z,98095.00
2024-01-15T09:23:21.502Z,98100.00
2024-01-15T09:25:49.693Z,98106.00
2024-01-15T09:28:16.499Z,98110.00
2024-01-15T09:30:43.443Z,98118.00
2024-01-15T09:33:10.641Z,98131.00
2024-01-15T09:35:37.930Z,98125.00
2024-01-15T09:38:06.887Z,98124.00
2024-01-15T09:40:34.817Z,98118.00
2024-01-15T09:43:03.060Z,98114.00
2024-01-15T09:45:30.608Z,98117.00
2024-01-15T09:47:57.841Z,98109.00
2024-01-15T09:50:25.046Z,98104.00
2024-01-15T09:52:52.759Z,98108.00
2024-01-15T09:55:19.744Z,98102.00
2024-01-15T09:57:49.567Z,98092.00
2024-01-15T10:00:19.519Z,98098.00
2024-01-15T10:02:46.816Z,98098.00
2024-01-15T10:05:13.714Z,98110.00
2024-01-15T10:07:41.943Z,98091.00
2024-01-15T10:10:09.760Z,98096.00
2024-01-15T10:12:37.397Z,98094.00
2024-01-15T10:15:05.404Z,98099.00
2024-01-15T10:17:32.432Z,98093.00
2024-01-15T10:19:59.358Z,98103.00
2024-01-15T10:22:27.324Z,98086.00
2024-01-15T10:24:54.385Z,98098.00
2024-01-15T10:27:21.354Z,98085.00
2024-01-15T10:29:48.144Z,98081.00
2024-01-15T10:32:14.976Z,98081.00
2024-01-15T10:34:43.031Z,98084.00
2024-01-15T10:37:11.130Z,98085.00
2024-01-15T10:39:39.012Z,98079.00
2024-01-15T10:42:07.732Z,98080.00
2024-01-15T10:44:35.634Z,98073.00
2024-01-15T10:47:02.742Z,98072.00
2024-01-15T10:49:33.093Z,98083.00
2024-01-15T10:52:04.189Z,98080.00
2024-01-15T10:54:32.743Z,98074.00
2024-01-15T10:56:59.707Z,98064.00
2024-01-15T10:59:26.500Z,98061.00
2024-01-15T11:01:55.682Z,98061.00
2024-01-15T11:04:25.208Z,98061.00
2024-01-15T11:06:55.916Z,98053.00
2024-01-15T11:09:25.194Z,98058.00
2024-01-15T11:12:09.166Z,98067.00
2024-01-15T11:23:48.340Z,98061.00
2024-01-15T11:26:59.034Z,98034.00
2024-01-15T11:30:20.383Z,98057.00
2024-01-15T11:32:55.326Z,98036.00
2024-01-15T11:35:23.490Z,98043.00
2024-01-15T11:39:22.648Z,98039.00
2024-01-15T11:44:21.393Z,98047.00
2024-01-15T11:47:01.902Z,98050.00
2024-01-15T11:49:49.836Z,98044.00
2024-01-15T11:52:22.451Z,98044.00
2024-01-15T11:55:34.594Z,98048.00
2024-01-15T11:58:04.255Z,98043.00
2024-01-15T12:00:31.423Z,98054.00
2024-01-15T12:03:00.555Z,98035.00
2024-01-15T12:05:27.365Z,98038.00
2024-01-15T12:07:57.341Z,98030.00
2024-01-15T12:10:25.190Z,98042.00
2024-01-15T12:13:21.736Z,98044.00
2024-01-15T12:15:50.022Z,98045.00
2024-01-15T12:18:20.303Z,98038.00
2024-01-15T12:20:48.830Z,98040.00
2024-01-15T12:23:17.661Z,98047.00
2024-01-15T12:25:47.959Z,98037.00
2024-01-15T12:28:15.747Z,98052.00
2024-01-15T12:30:42.980Z,98042.00
2024-01-15T12:33:10.621Z,98052.00
2024-01-15T12:35:38.981Z,98043.00
2024-01-15T12:38:07.538Z,98042.00
2024-01-15T12:40:47.664Z,98033.00
2024-01-15T12:43:14.560Z,98028.00
2024-01-15T12:45:45.801Z,98038.00
2024-01-15T12:48:14.658Z,98032.00
2024-01-15T12:50:44.684Z,98038.00
2024-01-15T12:53:11.384Z,98044.00
2024-01-15T12:55:38.144Z,98046.00
2024-01-15T12:58:07.735Z,98048.00
2024-01-15T13:00:34.524Z,98054.00
2024-01-15T13:03:04.594Z,98056.00
2024-01-15T13:05:34.839Z,98061.00
2024-01-15T13:08:02.300Z,98071.00
2024-01-15T13:10:31.455Z,98078.00
2024-01-15T13:12:58.300Z,98065.00
2024-01-15T13:15:25.133Z,98077.00
2024-01-15T13:17:52.082Z,98070.00
2024-01-15T13:20:19.070Z,98072.00
2024-01-15T13:22:47.130Z,98080.00
2024-01-15T13:25:14.133Z,98080.00
2024-01-15T13:27:41.921Z,98066.00
2024-01-15T13:30:11.729Z,98075.00
2024-01-15T13:32:38.634Z,98069.00
2024-01-15T13:35:08.499Z,98077.00
2024-01-15T13:37:35.797Z,98078.00
2024-01-15T13:40:03.205Z,98089.00
2024-01-15T13:42:30.175Z,98096.00
2024-01-15T13:44:57.062Z,98081.00
2024-01-15T13:47:26.810Z,98094.00
2024-01-15T13:49:54.030Z,98100.00
2024-01-15T13:52:20.962Z,98116.00
2024-01-15T13:54:50.555Z,98111.00
2024-01-15T13:57:21.758Z,98119.00
2024-01-15T13:59:50.203Z,98115.00
2024-01-15T14:02:20.966Z,98117.00
2024-01-15T14:04:50.275Z,98119.00
2024-01-15T14:07:20.181Z,98122.00
2024-01-15T14:09:49.607Z,98132.00
2024-01-15T14:12:16.865Z,98138.00
2024-01-15T14:14:43.705Z,98136.00
2024-01-15T14:20:45.717Z,98127.00
2024-01-15T14:24:06.215Z,98149.00
2024-01-15T14:26:33.108Z,98145.00
2024-01-15T14:29:03.832Z,98155.00
2024-01-15T14:32:14.564Z,98159.00
2024-01-15T14:34:45.345Z,98166.00
2024-01-15T14:37:12.136Z,98161.00
2024-01-15T14:39:39.055Z,98174.00
2024-01-15T14:42:05.975Z,98180.00
2024-01-15T14:44:34.709Z,98166.00
2024-01-15T14:47:01.646Z,98185.00
2024-01-15T14:49:28.490Z,98194.00
2024-01-15T14:51:55.774Z,98187.00
2024-01-15T14:54:24.789Z,98186.00
2024-01-15T14:56:52.013Z,98204.00
2024-01-15T14:59:18.825Z,98197.00
2024-01-15T15:01:46.896Z,98206.00
2024-01-15T15:04:13.811Z,98214.00
2024-01-15T15:06:47.424Z,98208.00
2024-01-15T15:09:48.314Z,98210.00
2024-01-15T15:12:19.124Z,98211.00
2024-01-15T15:15:12.737Z,98226.00
2024-01-15T15:18:17.783Z,98235.00
2024-01-15T15:20:59.906Z,98221.00
2024-01-15T15:23:26.897Z,98231.00
2024-01-15T15:26:30.698Z,98249.00
2024-01-15T15:29:10.034Z,98243.00
2024-01-15T15:31:46.918Z,98241.00
2024-01-15T15:34:37.997Z,98246.00
2024-01-15T15:37:09.990Z,98240.00
2024-01-15T15:39:43.897Z,98243.00
2024-01-15T15:42:10.798Z,98247.00
2024-01-15T15:44:46.538Z,98258.00
2024-01-15T15:47:22.283Z,98262.00
2024-01-15T15:50:50.247Z,98275.00
2024-01-15T15:56:04.914Z,98289.00
2024-01-15T15:58:34.208Z,98274.00
2024-01-15T16:01:01.320Z,98287.00
2024-01-15T16:03:34.662Z,98302.00
2024-01-15T16:06:33.684Z,98314.00
2024-01-15T16:09:00.890Z,98298.00
2024-01-15T16:11:52.768Z,98312.00
2024-01-15T16:15:39.093Z,98310.00
2024-01-15T16:23:20.484Z,98321.00
2024-01-15T16:23:35.202Z,98330.00
2024-01-15T16:24:12.346Z,98330.00
2024-01-15T16:26:44.081Z,98335.00
2024-01-15T16:29:23.053Z,98344.00
2024-01-15T16:31:50.022Z,98348.00
2024-01-15T16:34:16.830Z,98357.00
2024-01-15T16:36:46.449Z,98347.00
2024-01-15T16:39:15.915Z,98357.00
2024-01-15T16:41:45.181Z,98370.00
2024-01-15T16:52:07.253Z,98385.00
2024-01-15T16:58:04.510Z,98376.00
2024-01-15T17:01:21.222Z,98389.00
2024-01-15T17:04:36.361Z,98408.00
2024-01-15T17:07:06.600Z,98404.00
2024-01-15T17:09:36.148Z,98394.00
2024-01-15T17:12:19.182Z,98395.00
2024-01-15T17:18:04.354Z,98397.00
2024-01-15T17:20:42.445Z,98404.00
2024-01-15T17:24:10.082Z,98404.00
2024-01-15T17:26:48.300Z,98417.00
2024-01-15T17:29:25.545Z,98415.00
2024-01-15T17:36:13.557Z,98414.00
2024-01-15T17:40:18.319Z,98429.00
2024-01-15T17:44:54.242Z,98421.00
2024-01-15T19:35:42.935Z,98561.00
2024-01-15T19:41:35.626Z,98573.00
2024-01-15T19:44:02.478Z,98576.00
2024-01-15T19:47:07.237Z,98577.00
2024-01-15T19:50:26.213Z,98574.00
2024-01-15T19:53:40.276Z,98577.00
2024-01-15T20:09:29.111Z,98585.00
2024-01-15T20:16:00.195Z,98587.00
2024-01-15T20:18:40.102Z,98570.00
2024-01-15T20:21:12.936Z,98580.00
2024-01-15T20:23:58.652Z,98579.00
2024-01-15T20:26:31.101Z,98569.00
2024-01-15T20:29:16.010Z,98578.00
2024-01-15T20:32:07.739Z,98573.00
2024-01-15T20:35:16.221Z,98582.00
2024-01-15T20:37:51.848Z,98582.00
2024-01-15T20:40:24.647Z,98582.00
2024-01-15T20:43:25.501Z,98575.00
2024-01-15T20:45:57.344Z,98576.00
2024-01-15T20:48:43.662Z,98592.00
2024-01-15T20:51:39.234Z,98580.00
2024-01-15T20:54:20.602Z,98589.00
2024-01-15T20:56:55.604Z,98583.00
2024-01-15T20:59:47.039Z,98586.00
2024-01-15T21:02:44.191Z,98588.00
2024-01-15T21:05:13.569Z,98589.00
2024-01-15T21:07:50.011Z,98582.00
2024-01-15T21:10:21.362Z,98587.00
2024-01-15T21:21:29.169Z,98600.00
2024-01-15T21:24:38.579Z,98609.00
2024-01-15T21:28:09.691Z,98618.00
2024-01-15T21:49:07.681Z,98629.00
2024-01-15T21:55:47.041Z,98629.00
2024-01-15T22:02:10.324Z,98641.00
2024-01-15T22:04:45.707Z,98636.00
2024-01-15T22:07:26.987Z,98631.00
2024-01-15T22:10:24.539Z,98639.00
2024-01-15T22:16:35.148Z,98630.00
2024-01-15T22:20:21.570Z,98643.00
2024-01-15T22:22:25.283Z,98658.00
2024-01-15T22:25:36.149Z,98645.00
2024-01-15T22:34:13.136Z,98665.00
2024-01-15T22:36:43.896Z,98671.00
2024-01-15T22:39:28.065Z,98671.00
2024-01-15T22:42:08.567Z,98671.00
2024-01-15T22:44:52.216Z,98672.00
2024-01-15T22:47:25.732Z,98674.00
2024-01-15T22:53:32.885Z,98676.00
2024-01-15T22:56:19.490Z,98689.00
2024-01-15T22:59:05.835Z,98684.00
2024-01-15T23:07:37.581Z,98698.00
2024-01-15T23:17:25.911Z,98713.00
2024-01-15T23:20:19.481Z,98716.00
2024-01-15T23:23:15.376Z,98719.00
2024-01-15T23:26:21.759Z,98712.00
2024-01-15T23:35:57.509Z,98704.00
2024-01-15T23:38:57.463Z,98701.00
2024-01-15T23:42:02.536Z,98707.00
2024-01-15T23:45:11.835Z,98709.00
2024-01-15T23:50:53.133Z,98699.00
2024-01-15T23:53:39.859Z,98712.00
2024-01-15T23:56:52.097Z,98710.00
2024-01-15T23:59:57.129Z,98717.00
